sensor_id;sensor_type;location;lat;lon;timestamp;pressure;altitude;pressure_sealevel;temperature;humidity
16613;BME280;8419;52.358;9.752;2023-05-09T00:00:12;101338.00;;;21.89;29.74
16613;BME280;8419;52.358;9.752;2023-05-09T00:02:58;101332.00;;;21.92;29.68
16613;BME280;8419;52.358;9.752;2023-05-09T00:05:43;101334.00;;;21.90;29.71
16613;BME280;8419;52.358;9.752;2023-05-09T00:08:30;101326.00;;;21.89;29.70
16613;BME280;8419;52.358;9.752;2023-05-09T00:11:15;101328.00;;;21.90;29.64
16613;BME280;8419;52.358;9.752;2023-05-09T00:14:03;101330.00;;;21.88;29.67
16613;BME280;8419;52.358;9.752;2023-05-09T00:16:48;101326.00;;;21.72;29.86
16613;BME280;8419;52.358;9.752;2023-05-09T00:19:34;101331.00;;;21.64;29.96
16613;BME280;8419;52.358;9.752;2023-05-09T00:22:20;101325.00;;;21.62;30.02
16613;BME280;8419;52.358;9.752;2023-05-09T00:25:08;101323.00;;;21.58;30.08
16613;BME280;8419;52.358;9.752;2023-05-09T00:27:54;101319.00;;;21.55;30.10
16613;BME280;8419;52.358;9.752;2023-05-09T00:30:39;101319.00;;;21.45;30.19
16613;BME280;8419;52.358;9.752;2023-05-09T00:33:24;101312.00;;;21.38;30.29
16613;BME280;8419;52.358;9.752;2023-05-09T00:36:11;101309.00;;;21.40;30.27
16613;BME280;8419;52.358;9.752;2023-05-09T00:38:57;101306.00;;;21.33;30.36
16613;BME280;8419;52.358;9.752;2023-05-09T00:41:42;101304.00;;;21.31;30.37
16613;BME280;8419;52.358;9.752;2023-05-09T00:44:28;101304.00;;;21.37;30.27
16613;BME280;8419;52.358;9.752;2023-05-09T00:47:13;101294.00;;;21.31;30.36
16613;BME280;8419;52.358;9.752;2023-05-09T00:50:00;101299.00;;;21.28;30.41
16613;BME280;8419;52.358;9.752;2023-05-09T00:52:46;101302.00;;;21.26;30.44
16613;BME280;8419;52.358;9.752;2023-05-09T00:55:31;101295.00;;;21.24;30.46
16613;BME280;8419;52.358;9.752;2023-05-09T00:58:17;101296.00;;;21.20;30.50
16613;BME280;8419;52.358;9.752;2023-05-09T01:01:03;101301.00;;;21.13;30.58
16613;BME280;8419;52.358;9.752;2023-05-09T01:03:49;101299.00;;;21.07;30.67
16613;BME280;8419;52.358;9.752;2023-05-09T01:06:40;101291.00;;;21.12;30.61
16613;BME280;8419;52.358;9.752;2023-05-09T01:09:36;101280.00;;;21.04;30.77
16613;BME280;8419;52.358;9.752;2023-05-09T01:12:33;101279.00;;;20.98;30.82
16613;BME280;8419;52.358;9.752;2023-05-09T01:15:25;101272.00;;;20.95;30.83
16613;BME280;8419;52.358;9.752;2023-05-09T01:18:18;101262.00;;;20.91;30.86
16613;BME280;8419;52.358;9.752;2023-05-09T01:21:07;101261.00;;;20.89;30.86
16613;BME280;8419;52.358;9.752;2023-05-09T01:24:18;101262.00;;;20.83;30.89
16613;BME280;8419;52.358;9.752;2023-05-09T01:27:20;101257.00;;;20.81;30.96
16613;BME280;8419;52.358;9.752;2023-05-09T01:30:09;101245.00;;;20.73;31.04
16613;BME280;8419;52.358;9.752;2023-05-09T01:32:59;101246.00;;;20.69;31.05
16613;BME280;8419;52.358;9.752;2023-05-09T01:35:52;101241.00;;;20.63;31.12
16613;BME280;8419;52.358;9.752;2023-05-09T01:38:43;101245.00;;;20.59;31.22
16613;BME280;8419;52.358;9.752;2023-05-09T01:41:31;101244.00;;;20.53;31.25
16613;BME280;8419;52.358;9.752;2023-05-09T01:44:20;101253.00;;;20.52;31.29
16613;BME280;8419;52.358;9.752;2023-05-09T01:47:06;101236.00;;;20.52;31.30
16613;BME280;8419;52.358;9.752;2023-05-09T01:49:54;101241.00;;;20.44;31.39
16613;BME280;8419;52.358;9.752;2023-05-09T01:52:42;101236.00;;;20.41;31.46
16613;BME280;8419;52.358;9.752;2023-05-09T01:55:30;101239.00;;;20.41;31.46
16613;BME280;8419;52.358;9.752;2023-05-09T01:58:18;101233.00;;;20.41;31.50
16613;BME280;8419;52.358;9.752;2023-05-09T02:01:04;101236.00;;;20.39;31.53
16613;BME280;8419;52.358;9.752;2023-05-09T02:03:51;101234.00;;;20.35;31.54
16613;BME280;8419;52.358;9.752;2023-05-09T02:06:38;101235.00;;;20.44;31.45
16613;BME280;8419;52.358;9.752;2023-05-09T02:09:24;101223.00;;;20.35;31.55
16613;BME280;8419;52.358;9.752;2023-05-09T02:12:11;101225.00;;;20.31;31.58
16613;BME280;8419;52.358;9.752;2023-05-09T02:14:58;101226.00;;;20.30;31.60
16613;BME280;8419;52.358;9.752;2023-05-09T02:17:43;101222.00;;;20.28;31.64
16613;BME280;8419;52.358;9.752;2023-05-09T02:20:29;101220.00;;;20.25;31.72
16613;BME280;8419;52.358;9.752;2023-05-09T02:23:15;101219.00;;;20.26;31.70
16613;BME280;8419;52.358;9.752;2023-05-09T02:26:00;101214.00;;;20.23;31.74
16613;BME280;8419;52.358;9.752;2023-05-09T02:28:46;101219.00;;;20.19;31.78
16613;BME280;8419;52.358;9.752;2023-05-09T02:31:34;101214.00;;;20.16;31.82
16613;BME280;8419;52.358;9.752;2023-05-09T02:34:21;101215.00;;;20.14;31.88
16613;BME280;8419;52.358;9.752;2023-05-09T02:37:07;101218.00;;;20.11;31.92
16613;BME280;8419;52.358;9.752;2023-05-09T02:39:53;101222.00;;;20.08;31.97
16613;BME280;8419;52.358;9.752;2023-05-09T02:42:39;101222.00;;;20.07;31.98
16613;BME280;8419;52.358;9.752;2023-05-09T02:45:25;101222.00;;;20.05;31.99
16613;BME280;8419;52.358;9.752;2023-05-09T02:48:10;101220.00;;;20.01;32.08
16613;BME280;8419;52.358;9.752;2023-05-09T02:50:56;101217.00;;;19.99;32.13
16613;BME280;8419;52.358;9.752;2023-05-09T02:53:42;101217.00;;;20.02;32.12
16613;BME280;8419;52.358;9.752;2023-05-09T02:56:27;101209.00;;;19.96;32.21
16613;BME280;8419;52.358;9.752;2023-05-09T02:59:14;101215.00;;;19.95;32.26
16613;BME280;8419;52.358;9.752;2023-05-09T03:02:00;101203.00;;;19.97;32.24
16613;BME280;8419;52.358;9.752;2023-05-09T03:04:45;101205.00;;;20.03;32.20
16613;BME280;8419;52.358;9.752;2023-05-09T03:07:31;101207.00;;;20.04;32.20
16613;BME280;8419;52.358;9.752;2023-05-09T03:10:20;101213.00;;;20.05;32.21
16613;BME280;8419;52.358;9.752;2023-05-09T03:13:05;101205.00;;;20.03;32.25
16613;BME280;8419;52.358;9.752;2023-05-09T03:15:54;101214.00;;;19.99;32.31
16613;BME280;8419;52.358;9.752;2023-05-09T03:18:40;101204.00;;;19.95;32.38
16613;BME280;8419;52.358;9.752;2023-05-09T03:21:25;101198.00;;;19.91;32.44
16613;BME280;8419;52.358;9.752;2023-05-09T03:24:10;101193.00;;;19.87;32.47
16613;BME280;8419;52.358;9.752;2023-05-09T03:26:55;101192.00;;;19.88;32.46
16613;BME280;8419;52.358;9.752;2023-05-09T03:29:41;101199.00;;;19.81;32.58
16613;BME280;8419;52.358;9.752;2023-05-09T03:32:26;101199.00;;;19.75;32.68
16613;BME280;8419;52.358;9.752;2023-05-09T03:35:12;101189.00;;;19.73;32.74
16613;BME280;8419;52.358;9.752;2023-05-09T03:37:57;101184.00;;;19.71;32.75
16613;BME280;8419;52.358;9.752;2023-05-09T03:40:43;101181.00;;;19.71;32.77
16613;BME280;8419;52.358;9.752;2023-05-09T03:43:28;101194.00;;;19.70;32.79
16613;BME280;8419;52.358;9.752;2023-05-09T03:46:13;101191.00;;;19.66;32.86
16613;BME280;8419;52.358;9.752;2023-05-09T03:49:00;101192.00;;;19.65;32.87
16613;BME280;8419;52.358;9.752;2023-05-09T03:51:45;101187.00;;;19.61;32.98
16613;BME280;8419;52.358;9.752;2023-05-09T03:54:31;101177.00;;;19.61;32.97
16613;BME280;8419;52.358;9.752;2023-05-09T03:57:18;101179.00;;;19.62;32.97
16613;BME280;8419;52.358;9.752;2023-05-09T04:00:06;101174.00;;;19.31;33.46
16613;BME280;8419;52.358;9.752;2023-05-09T04:02:53;101170.00;;;19.17;33.74
16613;BME280;8419;52.358;9.752;2023-05-09T04:05:39;101167.00;;;19.09;33.96
16613;BME280;8419;52.358;9.752;2023-05-09T04:08:26;101165.00;;;19.09;33.97
16613;BME280;8419;52.358;9.752;2023-05-09T04:11:11;101161.00;;;19.07;34.04
16613;BME280;8419;52.358;9.752;2023-05-09T04:13:57;101160.00;;;19.05;34.06
16613;BME280;8419;52.358;9.752;2023-05-09T04:16:43;101157.00;;;19.03;34.09
16613;BME280;8419;52.358;9.752;2023-05-09T04:19:28;101158.00;;;19.01;34.18
16613;BME280;8419;52.358;9.752;2023-05-09T04:22:15;101153.00;;;19.01;34.23
16613;BME280;8419;52.358;9.752;2023-05-09T04:25:00;101157.00;;;19.05;34.22
16613;BME280;8419;52.358;9.752;2023-05-09T04:27:47;101163.00;;;19.07;34.22
16613;BME280;8419;52.358;9.752;2023-05-09T04:30:32;101163.00;;;19.05;34.26
16613;BME280;8419;52.358;9.752;2023-05-09T04:33:18;101159.00;;;19.06;34.31
16613;BME280;8419;52.358;9.752;2023-05-09T04:36:04;101164.00;;;19.01;34.46
16613;BME280;8419;52.358;9.752;2023-05-09T04:38:50;101166.00;;;19.01;34.52
16613;BME280;8419;52.358;9.752;2023-05-09T04:41:36;101165.00;;;19.39;33.91
16613;BME280;8419;52.358;9.752;2023-05-09T04:44:21;101158.00;;;19.47;33.79
16613;BME280;8419;52.358;9.752;2023-05-09T04:47:09;101162.00;;;19.60;33.64
16613;BME280;8419;52.358;9.752;2023-05-09T04:49:54;101167.00;;;19.60;33.72
16613;BME280;8419;52.358;9.752;2023-05-09T04:52:40;101154.00;;;19.65;33.73
16613;BME280;8419;52.358;9.752;2023-05-09T04:55:26;101158.00;;;19.74;33.86
16613;BME280;8419;52.358;9.752;2023-05-09T04:58:12;101157.00;;;19.80;33.84
16613;BME280;8419;52.358;9.752;2023-05-09T05:00:59;101151.00;;;19.85;33.97
16613;BME280;8419;52.358;9.752;2023-05-09T05:03:44;101143.00;;;19.92;33.84
16613;BME280;8419;52.358;9.752;2023-05-09T05:06:30;101144.00;;;19.94;33.77
16613;BME280;8419;52.358;9.752;2023-05-09T05:09:15;101142.00;;;19.93;33.74
16613;BME280;8419;52.358;9.752;2023-05-09T05:12:01;101142.00;;;19.94;33.76
16613;BME280;8419;52.358;9.752;2023-05-09T05:14:51;101137.00;;;19.98;33.73
16613;BME280;8419;52.358;9.752;2023-05-09T05:17:37;101145.00;;;20.04;33.66
16613;BME280;8419;52.358;9.752;2023-05-09T05:20:24;101144.00;;;20.10;33.60
16613;BME280;8419;52.358;9.752;2023-05-09T05:23:09;101128.00;;;20.13;33.61
16613;BME280;8419;52.358;9.752;2023-05-09T05:25:54;101127.00;;;20.16;33.57
16613;BME280;8419;52.358;9.752;2023-05-09T05:28:40;101134.00;;;20.17;33.63
16613;BME280;8419;52.358;9.752;2023-05-09T05:31:25;101130.00;;;20.26;33.54
16613;BME280;8419;52.358;9.752;2023-05-09T05:34:11;101137.00;;;19.99;34.01
16613;BME280;8419;52.358;9.752;2023-05-09T05:36:57;101135.00;;;20.32;33.53
16613;BME280;8419;52.358;9.752;2023-05-09T05:39:42;101128.00;;;20.11;33.93
16613;BME280;8419;52.358;9.752;2023-05-09T05:42:28;101129.00;;;20.33;33.69
16613;BME280;8419;52.358;9.752;2023-05-09T05:45:15;101135.00;;;20.52;33.44
16613;BME280;8419;52.358;9.752;2023-05-09T05:48:00;101128.00;;;20.51;33.50
16613;BME280;8419;52.358;9.752;2023-05-09T05:50:46;101123.00;;;20.65;33.40
16613;BME280;8419;52.358;9.752;2023-05-09T05:53:31;101112.00;;;20.74;33.32
16613;BME280;8419;52.358;9.752;2023-05-09T05:56:19;101113.00;;;20.78;33.32
16613;BME280;8419;52.358;9.752;2023-05-09T05:59:06;101119.00;;;20.91;33.21
16613;BME280;8419;52.358;9.752;2023-05-09T06:01:52;101114.00;;;21.01;33.14
16613;BME280;8419;52.358;9.752;2023-05-09T06:04:37;101115.00;;;21.05;33.13
16613;BME280;8419;52.358;9.752;2023-05-09T06:07:23;101109.00;;;21.14;33.07
16613;BME280;8419;52.358;9.752;2023-05-09T06:10:09;101113.00;;;21.16;33.13
16613;BME280;8419;52.358;9.752;2023-05-09T06:12:54;101094.00;;;21.30;32.95
16613;BME280;8419;52.358;9.752;2023-05-09T06:15:40;101095.00;;;21.09;33.39
16613;BME280;8419;52.358;9.752;2023-05-09T06:18:28;101094.00;;;21.08;33.54
16613;BME280;8419;52.358;9.752;2023-05-09T06:21:14;101091.00;;;21.38;33.11
16613;BME280;8419;52.358;9.752;2023-05-09T06:23:59;101097.00;;;21.60;32.79
16613;BME280;8419;52.358;9.752;2023-05-09T06:26:49;101099.00;;;21.70;32.69
16613;BME280;8419;52.358;9.752;2023-05-09T06:29:34;101098.00;;;21.81;32.65
16613;BME280;8419;52.358;9.752;2023-05-09T06:32:19;101091.00;;;21.86;32.59
16613;BME280;8419;52.358;9.752;2023-05-09T06:35:06;101095.00;;;21.92;32.54
16613;BME280;8419;52.358;9.752;2023-05-09T06:37:52;101093.00;;;22.02;32.45
16613;BME280;8419;52.358;9.752;2023-05-09T06:40:37;101085.00;;;22.02;32.49
16613;BME280;8419;52.358;9.752;2023-05-09T06:43:24;101087.00;;;22.06;32.50
16613;BME280;8419;52.358;9.752;2023-05-09T06:46:10;101084.00;;;22.17;32.37
16613;BME280;8419;52.358;9.752;2023-05-09T06:48:56;101078.00;;;22.28;32.29
16613;BME280;8419;52.358;9.752;2023-05-09T06:51:41;101063.00;;;22.37;32.22
16613;BME280;8419;52.358;9.752;2023-05-09T06:54:26;101074.00;;;22.44;32.19
16613;BME280;8419;52.358;9.752;2023-05-09T06:57:12;101069.00;;;22.56;32.09
16613;BME280;8419;52.358;9.752;2023-05-09T06:59:57;101059.00;;;22.59;32.11
16613;BME280;8419;52.358;9.752;2023-05-09T07:02:43;101057.00;;;22.66;32.06
16613;BME280;8419;52.358;9.752;2023-05-09T07:05:28;101052.00;;;22.72;31.93
16613;BME280;8419;52.358;9.752;2023-05-09T07:08:14;101047.00;;;22.81;31.83
16613;BME280;8419;52.358;9.752;2023-05-09T07:10:59;101038.00;;;22.86;31.80
16613;BME280;8419;52.358;9.752;2023-05-09T07:13:45;101040.00;;;22.94;31.77
16613;BME280;8419;52.358;9.752;2023-05-09T07:16:30;101035.00;;;23.04;31.71
16613;BME280;8419;52.358;9.752;2023-05-09T07:19:16;101046.00;;;23.15;31.66
16613;BME280;8419;52.358;9.752;2023-05-09T07:22:01;101032.00;;;23.25;31.58
16613;BME280;8419;52.358;9.752;2023-05-09T07:24:47;101025.00;;;23.36;31.47
16613;BME280;8419;52.358;9.752;2023-05-09T07:27:32;101025.00;;;23.43;31.42
16613;BME280;8419;52.358;9.752;2023-05-09T07:30:20;101025.00;;;23.49;31.40
16613;BME280;8419;52.358;9.752;2023-05-09T07:33:05;101018.00;;;23.60;31.33
16613;BME280;8419;52.358;9.752;2023-05-09T07:35:51;101014.00;;;23.68;31.23
16613;BME280;8419;52.358;9.752;2023-05-09T07:38:37;101017.00;;;23.70;31.33
16613;BME280;8419;52.358;9.752;2023-05-09T07:41:23;101003.00;;;23.78;31.27
16613;BME280;8419;52.358;9.752;2023-05-09T07:44:09;100999.00;;;23.87;31.20
16613;BME280;8419;52.358;9.752;2023-05-09T07:46:54;101000.00;;;23.97;31.19
16613;BME280;8419;52.358;9.752;2023-05-09T07:49:39;100996.00;;;24.06;31.09
16613;BME280;8419;52.358;9.752;2023-05-09T07:52:27;100992.00;;;24.15;31.01
16613;BME280;8419;52.358;9.752;2023-05-09T07:55:12;100990.00;;;24.22;30.94
16613;BME280;8419;52.358;9.752;2023-05-09T07:57:58;100990.00;;;24.35;30.72
16613;BME280;8419;52.358;9.752;2023-05-09T08:00:43;100976.00;;;24.38;30.73
16613;BME280;8419;52.358;9.752;2023-05-09T08:03:29;100979.00;;;24.46;30.65
16613;BME280;8419;52.358;9.752;2023-05-09T08:06:14;100983.00;;;24.58;30.55
16613;BME280;8419;52.358;9.752;2023-05-09T08:09:00;100979.00;;;24.62;30.59
16613;BME280;8419;52.358;9.752;2023-05-09T08:11:45;100973.00;;;24.65;30.58
16613;BME280;8419;52.358;9.752;2023-05-09T08:14:30;100972.00;;;24.79;30.46
16613;BME280;8419;52.358;9.752;2023-05-09T08:17:16;100952.00;;;24.73;30.64
16613;BME280;8419;52.358;9.752;2023-05-09T08:20:03;100961.00;;;24.95;30.33
16613;BME280;8419;52.358;9.752;2023-05-09T08:22:49;100960.00;;;25.09;30.21
16613;BME280;8419;52.358;9.752;2023-05-09T08:25:34;100957.00;;;25.14;30.17
16613;BME280;8419;52.358;9.752;2023-05-09T08:28:19;100953.00;;;25.27;30.07
16613;BME280;8419;52.358;9.752;2023-05-09T08:31:05;100939.00;;;25.37;30.05
16613;BME280;8419;52.358;9.752;2023-05-09T08:33:51;100940.00;;;25.41;30.10
16613;BME280;8419;52.358;9.752;2023-05-09T08:36:36;100939.00;;;25.48;29.93
16613;BME280;8419;52.358;9.752;2023-05-09T08:39:24;100927.00;;;25.30;30.32
16613;BME280;8419;52.358;9.752;2023-05-09T08:42:09;100913.00;;;25.41;30.28
16613;BME280;8419;52.358;9.752;2023-05-09T08:44:55;100913.00;;;25.85;29.72
16613;BME280;8419;52.358;9.752;2023-05-09T08:47:40;100912.00;;;26.13;29.45
16613;BME280;8419;52.358;9.752;2023-05-09T08:50:26;100905.00;;;26.27;29.44
16613;BME280;8419;52.358;9.752;2023-05-09T08:53:15;100902.00;;;26.38;29.34
16613;BME280;8419;52.358;9.752;2023-05-09T08:56:02;100911.00;;;26.47;29.26
16613;BME280;8419;52.358;9.752;2023-05-09T08:58:48;100908.00;;;26.58;29.20
16613;BME280;8419;52.358;9.752;2023-05-09T09:01:34;100908.00;;;26.67;29.09
16613;BME280;8419;52.358;9.752;2023-05-09T09:04:20;100901.00;;;26.68;29.01
16613;BME280;8419;52.358;9.752;2023-05-09T09:07:07;100900.00;;;26.63;29.10
16613;BME280;8419;52.358;9.752;2023-05-09T09:09:54;100892.00;;;27.04;28.46
16613;BME280;8419;52.358;9.752;2023-05-09T09:12:40;100883.00;;;27.14;28.24
16613;BME280;8419;52.358;9.752;2023-05-09T09:15:29;100876.00;;;27.26;28.19
16613;BME280;8419;52.358;9.752;2023-05-09T09:18:19;100879.00;;;27.38;28.04
16613;BME280;8419;52.358;9.752;2023-05-09T09:21:08;100880.00;;;27.16;28.43
16613;BME280;8419;52.358;9.752;2023-05-09T09:23:54;100881.00;;;27.62;27.85
16613;BME280;8419;52.358;9.752;2023-05-09T09:26:45;100876.00;;;27.31;28.30
16613;BME280;8419;52.358;9.752;2023-05-09T09:29:32;100878.00;;;27.50;28.17
16613;BME280;8419;52.358;9.752;2023-05-09T09:32:17;100876.00;;;27.59;28.08
16613;BME280;8419;52.358;9.752;2023-05-09T09:35:05;100867.00;;;27.68;27.97
16613;BME280;8419;52.358;9.752;2023-05-09T09:37:55;100858.00;;;27.79;27.79
16613;BME280;8419;52.358;9.752;2023-05-09T09:40:48;100855.00;;;27.90;27.64
16613;BME280;8419;52.358;9.752;2023-05-09T09:43:42;100846.00;;;28.31;27.13
16613;BME280;8419;52.358;9.752;2023-05-09T09:46:29;100846.00;;;28.49;26.90
16613;BME280;8419;52.358;9.752;2023-05-09T09:49:25;100852.00;;;28.62;26.76
16613;BME280;8419;52.358;9.752;2023-05-09T09:52:10;100851.00;;;28.75;26.63
16613;BME280;8419;52.358;9.752;2023-05-09T09:54:55;100845.00;;;28.56;26.85
16613;BME280;8419;52.358;9.752;2023-05-09T09:57:42;100837.00;;;28.68;26.82
16613;BME280;8419;52.358;9.752;2023-05-09T10:00:29;100830.00;;;28.81;26.61
16613;BME280;8419;52.358;9.752;2023-05-09T10:03:16;100830.00;;;28.89;26.54
16613;BME280;8419;52.358;9.752;2023-05-09T10:06:02;100824.00;;;29.01;26.35
16613;BME280;8419;52.358;9.752;2023-05-09T10:08:47;100826.00;;;29.31;26.09
16613;BME280;8419;52.358;9.752;2023-05-09T10:11:33;100818.00;;;29.45;25.88
16613;BME280;8419;52.358;9.752;2023-05-09T10:14:19;100817.00;;;29.54;25.84
16613;BME280;8419;52.358;9.752;2023-05-09T10:17:05;100810.00;;;29.64;25.65
16613;BME280;8419;52.358;9.752;2023-05-09T10:19:51;100804.00;;;29.70;25.65
16613;BME280;8419;52.358;9.752;2023-05-09T10:22:38;100797.00;;;30.16;25.15
16613;BME280;8419;52.358;9.752;2023-05-09T10:25:30;100799.00;;;30.33;24.95
16613;BME280;8419;52.358;9.752;2023-05-09T10:28:20;100786.00;;;30.45;24.81
16613;BME280;8419;52.358;9.752;2023-05-09T10:31:13;100778.00;;;30.60;24.65
16613;BME280;8419;52.358;9.752;2023-05-09T10:34:03;100777.00;;;30.40;24.95
16613;BME280;8419;52.358;9.752;2023-05-09T10:36:49;100778.00;;;30.98;24.28
16613;BME280;8419;52.358;9.752;2023-05-09T10:39:36;100771.00;;;31.07;24.13
16613;BME280;8419;52.358;9.752;2023-05-09T10:42:22;100773.00;;;30.93;24.23
16613;BME280;8419;52.358;9.752;2023-05-09T10:45:11;100763.00;;;31.00;24.05
16613;BME280;8419;52.358;9.752;2023-05-09T10:47:57;100759.00;;;31.19;23.94
16613;BME280;8419;52.358;9.752;2023-05-09T10:50:45;100758.00;;;31.28;23.89
16613;BME280;8419;52.358;9.752;2023-05-09T10:53:40;100739.00;;;31.35;23.73
16613;BME280;8419;52.358;9.752;2023-05-09T10:56:30;100736.00;;;31.46;23.63
16613;BME280;8419;52.358;9.752;2023-05-09T10:59:37;100729.00;;;31.52;23.57
16613;BME280;8419;52.358;9.752;2023-05-09T11:02:26;100729.00;;;31.74;23.39
16613;BME280;8419;52.358;9.752;2023-05-09T11:05:16;100729.00;;;31.82;23.23
16613;BME280;8419;52.358;9.752;2023-05-09T11:11:50;100708.00;;;32.19;22.79
16613;BME280;8419;52.358;9.752;2023-05-09T11:14:41;100702.00;;;32.64;22.29
16613;BME280;8419;52.358;9.752;2023-05-09T11:17:29;100698.00;;;32.87;22.04
16613;BME280;8419;52.358;9.752;2023-05-09T11:20:18;100700.00;;;32.95;21.88
16613;BME280;8419;52.358;9.752;2023-05-09T11:23:11;100703.00;;;32.98;21.82
16613;BME280;8419;52.358;9.752;2023-05-09T11:26:06;100689.00;;;33.03;21.92
16613;BME280;8419;52.358;9.752;2023-05-09T11:28:53;100682.00;;;33.11;21.79
16613;BME280;8419;52.358;9.752;2023-05-09T11:32:07;100681.00;;;33.18;21.74
16613;BME280;8419;52.358;9.752;2023-05-09T11:35:05;100679.00;;;33.42;21.65
16613;BME280;8419;52.358;9.752;2023-05-09T11:37:52;100675.00;;;33.64;21.45
16613;BME280;8419;52.358;9.752;2023-05-09T11:40:39;100680.00;;;33.82;21.24
16613;BME280;8419;52.358;9.752;2023-05-09T11:43:24;100665.00;;;34.10;21.07
16613;BME280;8419;52.358;9.752;2023-05-09T11:46:11;100665.00;;;34.34;20.84
16613;BME280;8419;52.358;9.752;2023-05-09T11:48:58;100664.00;;;34.44;20.73
16613;BME280;8419;52.358;9.752;2023-05-09T11:51:46;100655.00;;;34.49;20.72
16613;BME280;8419;52.358;9.752;2023-05-09T11:54:31;100651.00;;;34.79;20.45
16613;BME280;8419;52.358;9.752;2023-05-09T11:57:17;100657.00;;;34.98;20.29
16613;BME280;8419;52.358;9.752;2023-05-09T12:00:06;100648.00;;;35.14;20.19
16613;BME280;8419;52.358;9.752;2023-05-09T12:02:53;100642.00;;;35.22;20.13
16613;BME280;8419;52.358;9.752;2023-05-09T12:05:41;100654.00;;;35.39;20.04
16613;BME280;8419;52.358;9.752;2023-05-09T12:08:26;100635.00;;;35.54;19.90
16613;BME280;8419;52.358;9.752;2023-05-09T12:11:13;100641.00;;;35.46;19.92
16613;BME280;8419;52.358;9.752;2023-05-09T12:13:59;100637.00;;;35.48;19.89
16613;BME280;8419;52.358;9.752;2023-05-09T12:16:45;100639.00;;;35.55;19.70
16613;BME280;8419;52.358;9.752;2023-05-09T12:19:30;100635.00;;;35.41;19.84
16613;BME280;8419;52.358;9.752;2023-05-09T12:22:16;100623.00;;;35.67;19.59
16613;BME280;8419;52.358;9.752;2023-05-09T12:25:05;100621.00;;;35.64;19.60
16613;BME280;8419;52.358;9.752;2023-05-09T12:27:51;100625.00;;;35.61;19.59
16613;BME280;8419;52.358;9.752;2023-05-09T12:30:38;100625.00;;;35.80;19.47
16613;BME280;8419;52.358;9.752;2023-05-09T12:33:26;100612.00;;;35.69;19.51
16613;BME280;8419;52.358;9.752;2023-05-09T12:36:14;100613.00;;;35.42;19.76
16613;BME280;8419;52.358;9.752;2023-05-09T12:42:00;100603.00;;;35.93;19.38
16613;BME280;8419;52.358;9.752;2023-05-09T12:44:48;100598.00;;;36.12;19.18
16613;BME280;8419;52.358;9.752;2023-05-09T12:47:35;100602.00;;;36.50;18.85
16613;BME280;8419;52.358;9.752;2023-05-09T12:50:31;100589.00;;;36.30;18.94
16613;BME280;8419;52.358;9.752;2023-05-09T12:53:24;100601.00;;;35.89;19.29
16613;BME280;8419;52.358;9.752;2023-05-09T12:56:14;100586.00;;;35.35;19.74
16613;BME280;8419;52.358;9.752;2023-05-09T12:58:59;100591.00;;;35.06;20.00
16613;BME280;8419;52.358;9.752;2023-05-09T13:01:49;100572.00;;;34.81;20.25
16613;BME280;8419;52.358;9.752;2023-05-09T13:04:35;100577.00;;;34.74;20.30
16613;BME280;8419;52.358;9.752;2023-05-09T13:07:20;100572.00;;;34.66;20.38
16613;BME280;8419;52.358;9.752;2023-05-09T13:10:10;100582.00;;;34.45;20.58
16613;BME280;8419;52.358;9.752;2023-05-09T13:12:56;100565.00;;;34.49;20.55
16613;BME280;8419;52.358;9.752;2023-05-09T13:15:42;100581.00;;;34.37;20.72
16613;BME280;8419;52.358;9.752;2023-05-09T13:18:28;100569.00;;;34.50;20.60
16613;BME280;8419;52.358;9.752;2023-05-09T13:21:13;100566.00;;;34.31;20.78
16613;BME280;8419;52.358;9.752;2023-05-09T13:23:58;100564.00;;;34.33;20.72
16613;BME280;8419;52.358;9.752;2023-05-09T13:26:44;100572.00;;;33.93;21.07
16613;BME280;8419;52.358;9.752;2023-05-09T13:29:29;100556.00;;;33.62;21.38
16613;BME280;8419;52.358;9.752;2023-05-09T13:32:15;100560.00;;;33.61;21.31
16613;BME280;8419;52.358;9.752;2023-05-09T13:35:00;100566.00;;;33.63;21.30
16613;BME280;8419;52.358;9.752;2023-05-09T13:37:46;100549.00;;;33.51;21.39
16613;BME280;8419;52.358;9.752;2023-05-09T13:40:31;100553.00;;;33.40;21.52
16613;BME280;8419;52.358;9.752;2023-05-09T13:43:17;100548.00;;;33.52;21.41
16613;BME280;8419;52.358;9.752;2023-05-09T13:46:02;100533.00;;;33.55;21.40
16613;BME280;8419;52.358;9.752;2023-05-09T13:48:48;100536.00;;;33.37;21.58
16613;BME280;8419;52.358;9.752;2023-05-09T13:51:33;100525.00;;;33.30;21.67
16613;BME280;8419;52.358;9.752;2023-05-09T13:54:18;100531.00;;;33.53;21.44
16613;BME280;8419;52.358;9.752;2023-05-09T13:57:09;100513.00;;;34.49;20.65
16613;BME280;8419;52.358;9.752;2023-05-09T13:59:54;100500.00;;;35.68;19.65
16613;BME280;8419;52.358;9.752;2023-05-09T14:02:40;100502.00;;;36.39;19.17
16613;BME280;8419;52.358;9.752;2023-05-09T14:05:25;100503.00;;;36.73;18.93
16613;BME280;8419;52.358;9.752;2023-05-09T14:08:11;100501.00;;;36.62;19.08
16613;BME280;8419;52.358;9.752;2023-05-09T14:10:56;100494.00;;;36.45;19.27
16613;BME280;8419;52.358;9.752;2023-05-09T14:13:41;100487.00;;;36.20;19.48
16613;BME280;8419;52.358;9.752;2023-05-09T14:16:27;100488.00;;;35.70;19.91
16613;BME280;8419;52.358;9.752;2023-05-09T14:19:15;100487.00;;;35.26;20.32
16613;BME280;8419;52.358;9.752;2023-05-09T14:22:01;100480.00;;;35.42;20.25
16613;BME280;8419;52.358;9.752;2023-05-09T14:24:46;100478.00;;;35.97;19.69
16613;BME280;8419;52.358;9.752;2023-05-09T14:27:32;100471.00;;;36.08;19.68
16613;BME280;8419;52.358;9.752;2023-05-09T14:30:20;100464.00;;;36.82;19.07
16613;BME280;8419;52.358;9.752;2023-05-09T14:33:06;100458.00;;;37.54;18.49
16613;BME280;8419;52.358;9.752;2023-05-09T14:35:51;100445.00;;;37.10;18.86
16613;BME280;8419;52.358;9.752;2023-05-09T14:38:38;100447.00;;;36.86;19.01
16613;BME280;8419;52.358;9.752;2023-05-09T14:41:24;100437.00;;;36.66;19.12
16613;BME280;8419;52.358;9.752;2023-05-09T14:44:11;100445.00;;;36.84;19.00
16613;BME280;8419;52.358;9.752;2023-05-09T14:47:00;100429.00;;;37.09;18.80
16613;BME280;8419;52.358;9.752;2023-05-09T14:49:45;100433.00;;;36.97;18.88